Time;durP1;ratioP1;P1;durP2;ratioP2;P2;SDS_P1;SDS_P2;PMS_P1;PMS_P2;Temp;Humidity;BMP_temperature;BMP_pressure;BME280_temperature;BME280_humidity;BME280_pressure;Samples;Min_cycle;Max_cycle;Signal;HPM_P1;HPM_P2
2022/03/07 00:02:55;;;;;;;11.33;7.80;;;;;;;-0.65;74.15;100428.13;1753864;80;21200;-76
2022/03/07 00:06:02;;;;;;;14.33;8.75;;;;;;;-0.70;72.42;100430.25;1753937;81;21236;-82
2022/03/07 00:09:08;;;;;;;11.22;7.70;;;;;;;-0.71;72.89;100419.96;1754762;82;21149;-81
2022/03/07 00:12:15;;;;;;;12.90;8.23;;;;;;;-0.73;73.44;100420.56;1754204;80;21200;-76
2022/03/07 00:15:21;;;;;;;13.35;7.62;;;;;;;-0.77;73.50;100414.52;1754876;82;21160;-76
2022/03/07 00:18:26;;;;;;;11.83;8.18;;;;;;;-0.79;73.35;100412.91;1754814;80;21845;-77
2022/03/07 00:21:33;;;;;;;10.80;7.62;;;;;;;-0.85;73.15;100403.90;1736288;80;21406;-82
2022/03/07 00:24:38;;;;;;;10.65;7.00;;;;;;;-0.89;72.81;100403.27;1753384;81;21687;-76
2022/03/07 00:27:45;;;;;;;9.33;6.67;;;;;;;-0.93;72.02;100397.71;1753821;80;21773;-76
2022/03/07 00:30:52;;;;;;;9.63;7.12;;;;;;;-0.95;71.49;100394.25;1753374;81;21172;-76
2022/03/07 00:33:58;;;;;;;11.80;6.80;;;;;;;-0.95;71.00;100392.05;1754443;82;21169;-82
2022/03/07 00:37:06;;;;;;;9.18;6.15;;;;;;;-0.97;70.67;100384.59;1753118;80;21216;-76
2022/03/07 00:40:14;;;;;;;11.70;7.95;;;;;;;-0.97;70.43;100380.56;1753183;82;21169;-82
2022/03/07 00:43:15;;;;;;;11.33;7.03;;;;;;;-1.00;70.41;100382.09;1754547;80;22212;-77
2022/03/07 00:46:21;;;;;;;9.35;6.55;;;;;;;-1.04;70.10;100378.25;1754400;80;21705;-76
2022/03/07 00:49:27;;;;;;;14.75;7.03;;;;;;;-1.05;69.62;100367.14;1754569;82;21753;-76
2022/03/07 00:52:35;;;;;;;7.67;5.67;;;;;;;-1.05;69.54;100358.23;1753904;80;21196;-82
2022/03/07 00:55:42;;;;;;;10.03;6.58;;;;;;;-1.06;69.44;100353.34;1754610;82;21156;-76
2022/03/07 00:58:49;;;;;;;8.35;6.25;;;;;;;-1.07;69.16;100345.41;1754709;82;21157;-76
2022/03/07 01:01:55;;;;;;;11.73;6.42;;;;;;;-1.08;69.14;100342.34;1754357;80;21176;-82
2022/03/07 01:05:01;;;;;;;12.80;6.42;;;;;;;-1.08;69.35;100341.00;1754417;82;21196;-76
2022/03/07 01:08:08;;;;;;;9.00;6.03;;;;;;;-1.08;69.44;100338.32;1753584;80;21745;-76
2022/03/07 01:11:14;;;;;;;12.43;6.62;;;;;;;-1.09;69.79;100329.38;1754569;80;21169;-76
2022/03/07 01:14:19;;;;;;;18.37;10.28;;;;;;;-1.07;70.16;100320.76;1754608;82;21686;-76
2022/03/07 01:17:25;;;;;;;19.45;10.38;;;;;;;-1.05;70.61;100321.98;1753287;80;21758;-82
2022/03/07 01:20:32;;;;;;;14.80;9.40;;;;;;;-1.04;71.43;100317.84;1754205;82;21748;-76
2022/03/07 01:23:38;;;;;;;14.90;8.90;;;;;;;-1.03;72.37;100314.71;1754718;82;21638;-82
2022/03/07 01:26:43;;;;;;;15.25;8.75;;;;;;;-1.02;73.41;100315.08;1754083;80;21740;-76
2022/03/07 01:29:51;;;;;;;14.15;8.98;;;;;;;-1.01;74.05;100311.91;1754814;82;21204;-76
2022/03/07 01:32:57;;;;;;;16.45;9.05;;;;;;;-1.01;74.41;100311.42;1753713;80;21224;-77
2022/03/07 01:36:03;;;;;;;17.95;11.10;;;;;;;-1.02;74.08;100316.42;1753823;82;21251;-83
2022/03/07 01:39:03;;;;;;;18.90;11.10;;;;;;;-1.01;74.05;100316.80;1754634;82;21716;-78
2022/03/07 01:42:09;;;;;;;21.68;11.97;;;;;;;-0.98;73.96;100317.95;1754238;80;21220;-82
2022/03/07 01:45:24;;;;;;;20.10;10.00;;;;;;;-1.01;73.51;100314.59;1753571;82;21757;-76
2022/03/07 01:48:29;;;;;;;20.50;10.30;;;;;;;-1.06;73.35;100314.42;1754770;80;21777;-76
2022/03/07 01:51:35;;;;;;;19.05;11.40;;;;;;;-1.11;73.41;100313.87;1754783;80;21145;-82
2022/03/07 01:54:42;;;;;;;25.85;15.38;;;;;;;-1.11;73.93;100310.33;1754984;82;21200;-82
2022/03/07 01:57:50;;;;;;;14.68;9.68;;;;;;;-1.08;73.85;100311.47;1753808;80;21244;-82
2022/03/07 02:00:56;;;;;;;16.52;8.75;;;;;;;-1.06;73.98;100307.70;1754624;82;21797;-78
2022/03/07 02:04:04;;;;;;;12.58;8.18;;;;;;;-1.08;74.60;100310.12;1754519;82;21141;-76
2022/03/07 02:07:10;;;;;;;14.13;8.75;;;;;;;-1.11;75.37;100301.78;1753494;80;21220;-76
2022/03/07 02:10:17;;;;;;;17.87;10.65;;;;;;;-1.13;75.99;100309.09;1754762;82;21169;-82
2022/03/07 02:13:25;;;;;;;25.25;13.48;;;;;;;-1.16;76.67;100300.38;1754793;80;21220;-77
2022/03/07 02:16:31;;;;;;;18.48;11.45;;;;;;;-1.17;77.10;100300.86;1754719;80;21196;-83
2022/03/07 02:19:37;;;;;;;20.08;12.60;;;;;;;-1.16;77.50;100295.01;1753109;82;21204;-76
2022/03/07 02:22:43;;;;;;;18.57;12.65;;;;;;;-1.16;77.90;100292.33;1753431;80;21690;-76
2022/03/07 02:25:49;;;;;;;22.30;13.75;;;;;;;-1.16;77.97;100290.50;1753519;81;21148;-76
2022/03/07 02:28:56;;;;;;;23.10;14.15;;;;;;;-1.17;77.86;100289.27;1754400;82;21209;-82
2022/03/07 02:32:02;;;;;;;22.48;14.23;;;;;;;-1.21;77.87;100292.62;1753456;80;21645;-76
2022/03/07 02:35:12;;;;;;;21.35;14.13;;;;;;;-1.22;77.97;100291.37;1754578;82;21161;-76
2022/03/07 02:38:21;;;;;;;20.12;13.32;;;;;;;-1.21;78.13;100287.75;1753210;80;21784;-82
2022/03/07 02:41:27;;;;;;;19.42;12.35;;;;;;;-1.22;78.37;100286.00;1754398;80;21161;-82
2022/03/07 02:44:33;;;;;;;16.25;10.20;;;;;;;-1.21;78.59;100284.58;1754652;82;21200;-76
2022/03/07 02:47:40;;;;;;;14.83;9.75;;;;;;;-1.20;78.83;100277.38;1740487;81;21757;-82
2022/03/07 02:50:45;;;;;;;16.23;10.63;;;;;;;-1.22;79.02;100275.27;1741353;82;21161;-80
2022/03/07 02:53:53;;;;;;;31.33;15.80;;;;;;;-1.22;79.16;100277.95;1741365;82;21154;-76
2022/03/07 02:56:58;;;;;;;35.05;16.15;;;;;;;-1.23;79.39;100276.23;1741043;81;21212;-82
2022/03/07 03:00:05;;;;;;;42.73;20.57;;;;;;;-1.25;79.41;100275.48;1740168;81;21730;-76
2022/03/07 03:03:11;;;;;;;34.67;17.77;;;;;;;-1.26;79.58;100274.63;1740230;81;21754;-81
2022/03/07 03:06:18;;;;;;;33.92;17.65;;;;;;;-1.26;79.76;100275.97;1741264;81;21165;-76
2022/03/07 03:09:24;;;;;;;23.75;13.48;;;;;;;-1.26;79.71;100269.27;1740069;82;21205;-76
2022/03/07 03:12:29;;;;;;;20.85;11.65;;;;;;;-1.30;79.59;100267.26;1740674;81;21208;-82
2022/03/07 03:15:36;;;;;;;19.10;11.68;;;;;;;-1.33;79.57;100263.42;1741281;82;21161;-76
2022/03/07 03:18:42;;;;;;;21.27;12.07;;;;;;;-1.33;79.62;100262.56;1740510;82;21165;-76
2022/03/07 03:21:47;;;;;;;18.27;11.60;;;;;;;-1.32;79.65;100254.44;1739876;81;21197;-77
2022/03/07 03:24:56;;;;;;;15.78;10.65;;;;;;;-1.31;79.47;100257.49;1741318;82;21161;-83
2022/03/07 03:28:01;;;;;;;14.28;9.43;;;;;;;-1.36;79.38;100253.40;1740354;81;21204;-81
2022/03/07 03:31:11;;;;;;;17.70;9.93;;;;;;;-1.44;79.63;100245.84;1741339;82;21519;-76
2022/03/07 03:34:15;;;;;;;19.27;8.93;;;;;;;-1.51;79.99;100246.34;1741412;82;21153;-76
2022/03/07 03:37:21;;;;;;;13.00;8.38;;;;;;;-1.54;80.26;100244.73;1741449;81;21161;-76
2022/03/07 03:40:28;;;;;;;15.05;9.28;;;;;;;-1.57;80.46;100238.22;1741540;82;22133;-81
2022/03/07 03:43:33;;;;;;;16.02;9.58;;;;;;;-1.60;80.63;100235.73;1739889;81;21225;-76
2022/03/07 03:46:39;;;;;;;14.05;9.00;;;;;;;-1.63;80.78;100227.91;1742656;81;21219;-76
2022/03/07 03:49:47;;;;;;;12.98;8.90;;;;;;;-1.67;80.99;100225.90;1753483;82;21224;-79
2022/03/07 03:52:52;;;;;;;16.82;10.53;;;;;;;-1.70;81.07;100219.38;1753862;80;21196;-82
2022/03/07 03:55:52;;;;;;;19.65;12.10;;;;;;;-1.68;81.20;100219.30;1753081;82;21998;-82
2022/03/07 03:58:57;;;;;;;18.98;12.07;;;;;;;-1.65;81.35;100217.73;1754146;82;21721;-76
2022/03/07 04:02:04;;;;;;;18.73;10.55;;;;;;;-1.61;81.37;100215.23;1754376;80;21742;-82
2022/03/07 04:05:10;;;;;;;14.75;10.23;;;;;;;-1.59;81.55;100211.52;1754765;82;21726;-83
2022/03/07 04:08:16;;;;;;;15.13;9.13;;;;;;;-1.58;81.92;100217.73;1754649;80;21173;-76
2022/03/07 04:11:16;;;;;;;14.47;9.40;;;;;;;-1.57;82.26;100212.73;1754768;80;21156;-82
2022/03/07 04:14:07;;;;;;;14.73;9.95;;;;;;;-1.58;82.59;100210.54;1754908;82;21189;-81
2022/03/07 04:16:54;;;;;;;12.45;9.53;;;;;;;-1.56;82.82;100209.09;1754789;80;21204;-76
2022/03/07 04:19:59;;;;;;;13.80;9.58;;;;;;;-1.56;82.92;100206.41;1754820;82;21710;-76
2022/03/07 04:23:04;;;;;;;17.55;10.30;;;;;;;-1.57;83.14;100208.23;1754807;80;21157;-82
2022/03/07 04:26:11;;;;;;;15.00;10.05;;;;;;;-1.55;83.35;100204.13;1754817;82;21738;-80
2022/03/07 04:29:17;;;;;;;13.85;10.10;;;;;;;-1.52;83.55;100203.91;1742033;82;21785;-77
2022/03/07 04:32:24;;;;;;;14.90;9.60;;;;;;;-1.49;83.82;100203.71;1754814;80;21735;-76
2022/03/07 04:35:30;;;;;;;17.65;9.65;;;;;;;-1.44;83.98;100207.42;1754894;82;21730;-77
2022/03/07 04:38:35;;;;;;;15.98;9.90;;;;;;;-1.42;84.29;100198.30;1754743;80;21172;-76
2022/03/07 04:41:35;;;;;;;15.88;10.00;;;;;;;-1.39;84.42;100191.39;1754897;80;21794;-76
2022/03/07 04:44:26;;;;;;;13.22;10.15;;;;;;;-1.36;84.47;100191.20;1755000;82;21699;-82
2022/03/07 04:47:19;;;;;;;15.80;10.72;;;;;;;-1.31;84.44;100189.06;1754855;80;21172;-83
2022/03/07 04:50:25;;;;;;;16.67;10.13;;;;;;;-1.27;84.45;100181.67;1741610;82;21217;-81
2022/03/07 04:53:30;;;;;;;18.82;10.03;;;;;;;-1.24;84.28;100180.59;1741292;81;21169;-76
2022/03/07 04:56:35;;;;;;;22.00;13.05;;;;;;;-1.21;83.93;100175.87;1739871;81;21197;-82
2022/03/07 04:59:45;;;;;;;25.27;14.53;;;;;;;-1.20;83.52;100174.05;1740904;82;21170;-82
2022/03/07 05:02:51;;;;;;;20.25;12.98;;;;;;;-1.21;82.92;100175.02;1740358;81;21244;-82
2022/03/07 05:05:57;;;;;;;21.48;12.63;;;;;;;-1.21;82.48;100169.66;1741365;82;21538;-75
2022/03/07 05:09:04;;;;;;;20.60;13.03;;;;;;;-1.19;82.23;100170.39;1741187;82;21197;-75
2022/03/07 05:12:10;;;;;;;37.45;18.67;;;;;;;-1.19;82.09;100163.68;1740351;81;21846;-76
2022/03/07 05:15:16;;;;;;;27.50;14.05;;;;;;;-1.17;82.08;100167.14;1741278;82;21730;-82
2022/03/07 05:18:23;;;;;;;19.70;13.43;;;;;;;-1.13;82.01;100157.42;1731500;81;21213;-76
2022/03/07 05:21:29;;;;;;;21.82;12.15;;;;;;;-1.08;81.96;100162.48;1741239;81;21229;-82
2022/03/07 05:24:34;;;;;;;20.10;12.10;;;;;;;-1.04;81.89;100158.59;1741435;82;21197;-82
2022/03/07 05:27:40;;;;;;;19.57;11.83;;;;;;;-1.00;82.03;100162.78;1741407;81;21200;-76
2022/03/07 05:30:47;;;;;;;14.83;10.50;;;;;;;-0.94;82.12;100157.47;1739912;81;21180;-82
2022/03/07 05:33:52;;;;;;;18.70;12.37;;;;;;;-0.85;82.27;100160.41;1741472;82;21206;-81
2022/03/07 05:36:58;;;;;;;27.55;14.35;;;;;;;-0.79;82.18;100156.42;1741527;81;21205;-82
2022/03/07 05:40:04;;;;;;;21.70;12.70;;;;;;;-0.72;82.26;100158.17;1740695;82;21777;-81
2022/03/07 05:43:03;;;;;;;19.30;11.85;;;;;;;-0.67;82.01;100157.36;1740038;81;21730;-76
2022/03/07 05:45:56;;;;;;;18.25;11.05;;;;;;;-0.61;81.87;100150.20;1741162;82;21173;-75
2022/03/07 05:48:49;;;;;;;17.45;9.90;;;;;;;-0.51;81.78;100151.30;1740733;82;21200;-80
2022/03/07 05:51:55;;;;;;;16.82;11.20;;;;;;;-0.45;81.27;100145.47;1739512;81;21189;-75
2022/03/07 05:55:00;;;;;;;18.25;11.57;;;;;;;-0.41;80.90;100139.40;1740213;82;21826;-81
2022/03/07 05:58:07;;;;;;;18.05;10.68;;;;;;;-0.37;80.51;100143.09;1739698;81;21201;-82
2022/03/07 06:01:14;;;;;;;20.48;11.15;;;;;;;-0.31;80.00;100130.55;1740146;81;21727;-82
2022/03/07 06:04:21;;;;;;;18.82;10.75;;;;;;;-0.29;79.63;100131.77;1741407;82;21189;-81
2022/03/07 06:07:27;;;;;;;20.97;12.00;;;;;;;-0.21;79.71;100128.53;1739946;81;21216;-82
2022/03/07 06:10:34;;;;;;;19.77;11.25;;;;;;;-0.18;79.44;100125.63;1740159;82;21177;-76
2022/03/07 06:13:40;;;;;;;22.42;12.43;;;;;;;-0.10;79.07;100131.28;1741101;82;21186;-77
2022/03/07 06:16:45;;;;;;;17.32;11.12;;;;;;;-0.06;78.96;100132.29;1752932;81;21178;-82
2022/03/07 06:19:51;;;;;;;19.87;10.98;;;;;;;-0.02;78.94;100135.13;1768736;80;21204;-77
2022/03/07 06:22:57;;;;;;;19.75;11.93;;;;;;;0.02;78.69;100132.23;1760990;81;21205;-76
2022/03/07 06:26:02;;;;;;;18.87;11.95;;;;;;;0.07;78.73;100131.40;1763164;81;21742;-82
2022/03/07 06:29:08;;;;;;;20.60;10.43;;;;;;;0.12;78.43;100136.80;1770798;81;21704;-77
2022/03/07 06:32:14;;;;;;;21.33;12.53;;;;;;;0.19;78.71;100134.05;1770005;79;21170;-77
2022/03/07 06:35:19;;;;;;;25.08;13.40;;;;;;;0.28;78.93;100141.89;1760029;81;21153;-82
2022/03/07 06:38:25;;;;;;;22.40;13.25;;;;;;;0.33;78.57;100141.54;1765786;79;21137;-77
2022/03/07 06:41:30;;;;;;;20.55;12.98;;;;;;;0.43;78.91;100145.28;1763867;79;21154;-77
2022/03/07 06:44:39;;;;;;;19.55;12.50;;;;;;;0.55;78.86;100137.61;1765611;81;21209;-77
2022/03/07 06:47:44;;;;;;;22.25;12.98;;;;;;;0.63;78.72;100141.07;1770801;81;21777;-82
2022/03/07 06:50:50;;;;;;;24.23;14.93;;;;;;;0.67;78.72;100138.52;1756150;80;21244;-77
2022/03/07 06:53:56;;;;;;;25.90;15.40;;;;;;;0.67;78.23;100136.69;1783120;79;21219;-83
2022/03/07 06:57:03;;;;;;;19.12;13.83;;;;;;;0.65;78.37;100137.27;1780780;80;21208;-76
2022/03/07 07:00:10;;;;;;;18.60;12.47;;;;;;;0.70;78.47;100128.35;1780428;80;21798;-76
2022/03/07 07:03:17;;;;;;;18.37;12.30;;;;;;;0.81;78.20;100127.55;1774469;79;21459;-76
2022/03/07 07:06:23;;;;;;;18.02;11.70;;;;;;;0.94;77.79;100121.59;1781295;79;21701;-75
2022/03/07 07:09:30;;;;;;;14.68;11.20;;;;;;;1.04;76.96;100105.56;1779971;80;21145;-81
2022/03/07 07:12:36;;;;;;;20.55;11.12;;;;;;;1.10;76.40;100106.41;1780387;79;21141;-76
2022/03/07 07:15:42;;;;;;;16.40;10.00;;;;;;;1.17;75.74;100100.89;1775917;80;21433;-81
2022/03/07 07:18:49;;;;;;;11.68;8.85;;;;;;;1.24;75.69;100099.45;1780284;80;21224;-81
2022/03/07 07:21:54;;;;;;;14.65;9.18;;;;;;;1.31;74.06;100090.37;1776101;80;21521;-76
2022/03/07 07:25:00;;;;;;;13.95;8.05;;;;;;;1.37;73.69;100085.00;1777821;80;21181;-76
2022/03/07 07:28:05;;;;;;;11.25;7.40;;;;;;;1.47;73.55;100083.28;1776748;79;21168;-76
2022/03/07 07:31:11;;;;;;;12.40;7.60;;;;;;;1.58;72.54;100081.91;1777440;80;21153;-76
2022/03/07 07:34:18;;;;;;;9.60;6.53;;;;;;;1.61;71.83;100080.81;1780084;80;21189;-82
2022/03/07 07:37:25;;;;;;;12.98;6.65;;;;;;;1.57;71.39;100075.30;1776427;80;21172;-74
2022/03/07 07:40:31;;;;;;;10.48;6.78;;;;;;;1.59;70.05;100062.54;1777796;80;21157;-82
2022/03/07 07:43:36;;;;;;;11.93;7.97;;;;;;;1.65;70.10;100061.56;1777585;80;21812;-75
2022/03/07 07:46:42;;;;;;;10.32;6.87;;;;;;;1.62;69.89;100053.72;1781336;79;21188;-76
2022/03/07 07:49:57;;;;;;;12.35;8.33;;;;;;;1.59;69.12;100052.61;1778362;80;21679;-82
2022/03/07 07:53:53;;;;;;;11.28;8.00;;;;;;;1.53;69.61;100048.58;1769236;79;21737;-76
2022/03/07 07:57:39;;;;;;;11.05;8.08;;;;;;;1.53;68.75;100046.38;1769034;81;21204;-75
2022/03/07 08:00:46;;;;;;;9.95;6.80;;;;;;;1.63;68.30;100041.09;1767898;80;21134;-80
2022/03/07 08:03:52;;;;;;;9.05;6.42;;;;;;;1.82;67.54;100037.73;1765215;80;21754;-82
2022/03/07 08:06:57;;;;;;;7.20;5.40;;;;;;;1.97;66.28;100029.70;1761232;81;21165;-75
2022/03/07 08:10:03;;;;;;;10.30;5.58;;;;;;;2.17;65.45;100026.21;1771709;80;21170;-81
2022/03/07 08:13:11;;;;;;;8.23;5.87;;;;;;;2.44;64.28;100031.08;1767992;80;21207;-81
2022/03/07 08:16:03;;;;;;;9.73;6.35;;;;;;;2.74;62.13;100011.40;1772616;80;21695;-80
2022/03/07 08:19:09;;;;;;;8.90;6.17;;;;;;;2.98;60.80;100020.55;1759244;80;21162;-81
2022/03/07 08:22:14;;;;;;;7.00;5.22;;;;;;;3.18;60.69;100013.87;1768364;81;21516;-75
2022/03/07 08:25:20;;;;;;;8.08;5.83;;;;;;;3.33;59.57;100012.50;1770617;81;21193;-76
2022/03/07 08:28:25;;;;;;;7.70;5.75;;;;;;;3.50;58.78;100002.39;1770731;81;21177;-82
2022/03/07 08:31:30;;;;;;;9.50;6.30;;;;;;;3.70;55.49;99999.72;1769789;79;21153;-76
2022/03/07 08:34:38;;;;;;;8.75;6.15;;;;;;;3.83;53.38;99994.90;1769634;81;21193;-76
2022/03/07 08:37:45;;;;;;;7.80;6.05;;;;;;;3.98;55.44;99987.22;1769314;81;21179;-82
2022/03/07 08:40:51;;;;;;;12.07;5.45;;;;;;;4.06;55.43;99986.02;1759085;81;21708;-76
2022/03/07 08:43:57;;;;;;;8.00;5.33;;;;;;;4.01;54.61;99977.47;1737085;81;21169;-76
2022/03/07 08:47:03;;;;;;;11.83;7.03;;;;;;;3.81;54.32;99974.77;1770027;81;21576;-82
2022/03/07 08:50:08;;;;;;;10.88;7.30;;;;;;;3.52;55.21;99966.58;1769672;81;21328;-75
2022/03/07 08:53:13;;;;;;;12.73;6.95;;;;;;;3.27;56.82;99967.95;1773188;80;21236;-82
2022/03/07 08:56:19;;;;;;;9.08;6.30;;;;;;;3.14;57.21;99971.89;1784161;79;21173;-76
2022/03/07 08:59:28;;;;;;;9.95;6.70;;;;;;;3.01;57.45;99965.36;1783314;80;21164;-82
2022/03/07 09:02:32;;;;;;;11.43;6.75;;;;;;;2.90;57.56;99964.13;1776613;80;21221;-81
2022/03/07 09:05:38;;;;;;;10.78;7.10;;;;;;;2.81;57.67;99966.64;1781418;80;21169;-75
2022/03/07 09:08:44;;;;;;;9.60;6.45;;;;;;;2.74;58.04;99970.88;1780550;80;22038;-81
2022/03/07 09:11:51;;;;;;;11.15;7.55;;;;;;;2.69;58.23;99970.94;1774767;80;21184;-82
2022/03/07 09:14:56;;;;;;;12.13;7.17;;;;;;;2.66;58.29;99967.14;1774995;80;21752;-75
2022/03/07 09:18:01;;;;;;;11.35;6.60;;;;;;;2.65;58.20;99968.98;1778610;80;21386;-82
2022/03/07 09:21:06;;;;;;;13.43;7.67;;;;;;;2.60;58.00;99962.28;1775372;80;21730;-75
2022/03/07 09:24:12;;;;;;;11.85;7.10;;;;;;;2.41;57.45;99954.92;1775244;80;21133;-82
2022/03/07 09:27:17;;;;;;;7.83;5.53;;;;;;;2.23;57.78;99963.61;1766020;80;21196;-74
2022/03/07 09:30:24;;;;;;;8.23;5.40;;;;;;;2.10;57.86;99960.74;1771000;80;21173;-82
2022/03/07 09:33:31;;;;;;;7.67;4.85;;;;;;;2.06;57.13;99962.84;1781585;79;21247;-76
2022/03/07 09:36:36;;;;;;;9.48;4.97;;;;;;;1.91;56.67;99955.55;1776671;80;21148;-76
2022/03/07 09:39:42;;;;;;;5.72;3.72;;;;;;;1.84;57.06;99962.97;1774196;80;21164;-82
2022/03/07 09:42:47;;;;;;;10.03;5.62;;;;;;;1.79;57.32;99961.51;1771118;80;21152;-81
2022/03/07 09:45:53;;;;;;;13.03;7.83;;;;;;;1.83;58.19;99966.12;1763193;80;21150;-82
2022/03/07 09:48:59;;;;;;;9.65;6.62;;;;;;;1.84;60.16;99960.27;1773251;80;21711;-76
2022/03/07 09:52:04;;;;;;;11.08;7.30;;;;;;;1.73;62.97;99966.54;1767407;80;21722;-82
2022/03/07 09:55:03;;;;;;;13.35;8.05;;;;;;;1.53;65.15;99966.36;1760471;79;21189;-76
2022/03/07 09:58:09;;;;;;;9.73;6.22;;;;;;;1.37;65.93;99963.73;1733360;82;21184;-76
2022/03/07 10:01:19;;;;;;;12.07;7.80;;;;;;;1.34;65.99;99955.89;1715703;82;21745;-76
2022/03/07 10:04:26;;;;;;;13.18;7.65;;;;;;;1.37;66.13;99959.69;1709626;83;21189;-76
2022/03/07 10:07:31;;;;;;;13.65;8.05;;;;;;;1.48;67.04;99948.37;1717408;81;21795;-76
2022/03/07 10:10:40;;;;;;;10.35;6.85;;;;;;;1.69;67.33;99941.66;1740710;82;21152;-76
2022/03/07 10:13:47;;;;;;;13.45;6.78;;;;;;;1.96;67.51;99947.08;1699459;82;21178;-77
2022/03/07 10:16:54;;;;;;;16.55;11.65;;;;;;;2.18;66.79;99944.27;1702687;84;21197;-76
2022/03/07 10:20:04;;;;;;;11.15;7.00;;;;;;;2.41;65.77;99935.53;1704112;82;21748;-75
2022/03/07 10:23:10;;;;;;;10.80;7.72;;;;;;;2.62;65.29;99930.09;1715167;82;21160;-83
2022/03/07 10:26:16;;;;;;;12.30;7.12;;;;;;;2.76;63.83;99927.02;1697644;82;21897;-76
2022/03/07 10:29:21;;;;;;;11.18;6.92;;;;;;;2.89;63.10;99919.20;1736202;82;21160;-83
2022/03/07 10:32:29;;;;;;;9.93;6.83;;;;;;;2.96;62.96;99910.39;1720389;83;21230;-82
2022/03/07 10:35:42;;;;;;;8.83;5.78;;;;;;;3.02;61.77;99913.06;1706175;83;21196;-76
2022/03/07 10:38:51;;;;;;;12.50;7.33;;;;;;;3.08;60.54;99909.30;1719292;83;21177;-83
2022/03/07 10:41:55;;;;;;;12.05;7.15;;;;;;;3.09;60.09;99902.04;1728869;81;21218;-82
2022/03/07 10:45:13;;;;;;;12.03;6.35;;;;;;;3.06;60.28;99895.08;1729616;83;21189;-76
2022/03/07 10:48:18;;;;;;;11.57;6.92;;;;;;;3.06;60.68;99888.83;1709472;81;21181;-82
2022/03/07 10:51:25;;;;;;;10.32;6.65;;;;;;;3.01;60.17;99880.25;1712503;82;21736;-82
2022/03/07 10:54:30;;;;;;;11.10;7.60;;;;;;;2.98;59.71;99873.80;1724858;82;21181;-80
2022/03/07 10:57:36;;;;;;;11.12;7.47;;;;;;;2.94;59.72;99867.80;1724257;81;21153;-76
2022/03/07 11:00:34;;;;;;;13.68;8.38;;;;;;;2.87;59.89;99865.31;1702345;83;21158;-81
2022/03/07 11:03:32;;;;;;;15.20;9.15;;;;;;;2.84;60.46;99864.23;1725841;83;21221;-82
2022/03/07 11:06:39;;;;;;;11.95;7.67;;;;;;;2.88;60.29;99858.06;1723993;81;21197;-82
2022/03/07 11:09:49;;;;;;;14.58;6.50;;;;;;;3.00;60.81;99863.69;1726968;83;21174;-80
2022/03/07 11:12:53;;;;;;;9.58;6.60;;;;;;;3.11;59.92;99860.89;1732014;81;21245;-82
2022/03/07 11:16:00;;;;;;;18.67;6.22;;;;;;;3.23;59.11;99858.90;1724897;83;21217;-75
2022/03/07 11:19:07;;;;;;;11.65;6.20;;;;;;;3.30;58.20;99856.86;1717416;83;21221;-76
2022/03/07 11:22:12;;;;;;;8.90;6.50;;;;;;;3.33;57.47;99855.20;1724908;81;21209;-76
2022/03/07 11:25:18;;;;;;;11.55;7.12;;;;;;;3.38;58.18;99845.31;1729908;83;21225;-76
2022/03/07 11:28:24;;;;;;;9.08;6.25;;;;;;;3.49;58.03;99843.00;1729582;81;21540;-76
2022/03/07 11:31:32;;;;;;;10.08;6.25;;;;;;;3.52;57.57;99842.19;1702603;83;21494;-75
2022/03/07 11:34:37;;;;;;;7.15;4.83;;;;;;;3.61;57.08;99838.28;1763342;81;21727;-76
2022/03/07 11:37:43;;;;;;;8.53;4.80;;;;;;;3.64;56.46;99836.15;1767572;81;21185;-81
2022/03/07 11:41:13;;;;;;;5.95;3.85;;;;;;;3.66;54.99;99831.44;1756823;81;21754;-80
2022/03/07 11:44:18;;;;;;;;;;;;;;;3.75;54.14;99829.72;1760365;81;21142;-76
2022/03/07 11:47:26;;;;;;;6.15;4.25;;;;;;;3.77;52.33;99828.59;1759849;81;20212;-76
2022/03/07 11:50:31;;;;;;;10.40;5.42;;;;;;;3.80;52.00;99828.28;1761326;81;21695;-76
2022/03/07 11:53:37;;;;;;;8.50;3.62;;;;;;;3.83;53.14;99825.80;1725336;81;21751;-76
2022/03/07 11:56:44;;;;;;;4.42;3.15;;;;;;;3.75;51.75;99825.16;1751054;81;21228;-82
2022/03/07 11:59:49;;;;;;;5.70;3.55;;;;;;;3.75;50.67;99822.45;1773188;79;21219;-76
2022/03/07 12:03:00;;;;;;;6.75;3.10;;;;;;;3.76;50.37;99817.90;1776310;79;21159;-82
2022/03/07 12:06:18;;;;;;;5.35;3.02;;;;;;;3.72;50.10;99811.95;1774838;80;21731;-77
2022/03/07 12:09:39;;;;;;;4.25;2.90;;;;;;;3.58;49.94;99812.39;1770581;80;21201;-82
2022/03/07 12:12:45;;;;;;;5.22;3.50;;;;;;;3.47;50.57;99815.23;1767054;80;21188;-76
2022/03/07 12:15:57;;;;;;;5.00;3.62;;;;;;;3.44;50.92;99812.33;1766381;80;21690;-77
2022/03/07 12:19:26;;;;;;;6.45;3.35;;;;;;;3.49;50.74;99809.20;1766852;80;21134;-82
2022/03/07 12:22:28;;;;;;;6.42;3.27;;;;;;;3.52;50.66;99804.83;1775447;80;21144;-76
2022/03/07 12:25:34;;;;;;;5.53;3.72;;;;;;;3.50;50.31;99814.45;1765458;80;21773;-76
2022/03/07 12:28:43;;;;;;;4.97;3.75;;;;;;;3.44;50.79;99808.77;1773223;80;21714;-76
2022/03/07 12:31:59;;;;;;;6.67;4.17;;;;;;;3.33;51.28;99801.13;1757727;80;21196;-76
2022/03/07 12:35:04;;;;;;;8.25;4.78;;;;;;;3.27;52.35;99799.02;1774041;80;21803;-81
2022/03/07 12:38:15;;;;;;;8.35;5.10;;;;;;;3.14;53.40;99808.39;1776309;80;21737;-82
2022/03/07 12:41:19;;;;;;;8.55;5.25;;;;;;;3.00;54.60;99806.95;1780660;79;21177;-76
2022/03/07 12:44:25;;;;;;;9.43;5.60;;;;;;;2.85;54.79;99796.20;1779515;80;21138;-82
2022/03/07 12:47:43;;;;;;;10.45;6.05;;;;;;;2.74;56.32;99796.68;1752893;80;21259;-82
2022/03/07 12:50:48;;;;;;;8.05;5.33;;;;;;;2.65;56.83;99796.16;1780756;80;21162;-77
2022/03/07 12:54:06;;;;;;;10.32;6.20;;;;;;;2.55;58.44;99802.03;1783719;80;21511;-76
2022/03/07 12:57:13;;;;;;;8.70;5.78;;;;;;;2.39;58.72;99798.48;1777651;80;21541;-82
2022/03/07 13:00:22;;;;;;;6.20;4.45;;;;;;;2.29;59.30;99794.39;1770974;80;21197;-82
2022/03/07 13:03:28;;;;;;;8.53;5.03;;;;;;;2.29;59.72;99805.19;1769535;79;21822;-76
2022/03/07 13:06:40;;;;;;;7.75;5.67;;;;;;;2.21;59.69;99798.30;1768967;81;21511;-75
2022/03/07 13:09:45;;;;;;;;;;;;;;;2.16;59.90;99797.81;1755810;81;21161;-82
2022/03/07 13:12:51;;;;;;;10.15;5.75;;;;;;;2.14;59.37;99803.85;1770861;79;20229;-82
2022/03/07 13:16:01;;;;;;;7.65;5.65;;;;;;;2.04;59.83;99802.45;1768675;80;21224;-82
2022/03/07 13:19:08;;;;;;;8.58;6.08;;;;;;;1.95;62.94;99801.91;1769596;81;21162;-82
2022/03/07 13:22:14;;;;;;;8.83;6.20;;;;;;;1.81;65.43;99808.15;1761766;79;21181;-76
2022/03/07 13:25:20;;;;;;;8.73;6.50;;;;;;;1.63;67.68;99803.34;1757478;81;21149;-76
2022/03/07 13:28:39;;;;;;;10.55;6.80;;;;;;;1.46;69.08;99805.30;1750527;81;21158;-82
2022/03/07 13:32:01;;;;;;;10.98;6.97;;;;;;;1.29;70.15;99812.11;1770450;81;21209;-76
2022/03/07 13:35:01;;;;;;;8.60;6.15;;;;;;;1.19;71.80;99807.98;1744516;80;21179;-76
2022/03/07 13:38:08;;;;;;;10.25;6.08;;;;;;;1.09;73.25;99805.70;1766595;79;21212;-82
2022/03/07 13:41:15;;;;;;;13.08;6.90;;;;;;;1.06;74.26;99803.75;1770266;81;21681;-76
2022/03/07 13:44:21;;;;;;;12.03;6.40;;;;;;;1.11;74.98;99806.91;1770835;81;21161;-81
2022/03/07 13:47:35;;;;;;;10.60;7.62;;;;;;;1.15;75.19;99802.48;1771371;81;21830;-76
2022/03/07 13:50:40;;;;;;;10.68;7.58;;;;;;;1.12;75.77;99806.77;1771497;81;21628;-82
2022/03/07 13:53:45;;;;;;;11.90;7.78;;;;;;;1.06;76.44;99804.59;1771075;81;21193;-76
2022/03/07 13:56:50;;;;;;;13.62;7.92;;;;;;;1.02;76.79;99806.69;1771396;81;21751;-76
2022/03/07 14:00:04;;;;;;;14.87;9.40;;;;;;;1.00;77.65;99798.39;1771135;79;21150;-82
2022/03/07 14:03:13;;;;;;;13.22;8.73;;;;;;;0.93;78.91;99799.86;1779224;80;21177;-76
2022/03/07 14:06:28;;;;;;;10.65;7.55;;;;;;;0.80;79.49;99800.51;1779235;80;21161;-76
2022/03/07 14:09:32;;;;;;;10.43;7.65;;;;;;;0.67;79.44;99801.54;1779674;80;21872;-76
2022/03/07 14:12:44;;;;;;;11.70;7.78;;;;;;;0.54;80.19;99795.44;1779703;80;21209;-77
2022/03/07 14:15:50;;;;;;;12.80;7.97;;;;;;;0.47;80.56;99796.44;1780026;80;21690;-76
2022/03/07 14:18:57;;;;;;;11.55;8.15;;;;;;;0.40;80.94;99789.83;1720674;82;21181;-82
2022/03/07 14:22:03;;;;;;;11.25;7.92;;;;;;;0.37;81.32;99791.91;1726443;83;21763;-82
2022/03/07 14:25:09;;;;;;;11.25;7.30;;;;;;;0.37;81.49;99793.25;1713626;84;21168;-79
2022/03/07 14:28:15;;;;;;;9.80;7.10;;;;;;;0.37;81.89;99787.87;1712407;84;21768;-81